createdAt,value
2023-03-02T00:01:10.475Z,16.02
2023-03-02T00:03:39.173Z,16.77
2023-03-02T00:06:06.781Z,19.42
2023-03-02T00:08:35.051Z,17.67
2023-03-02T00:11:02.264Z,18.77
2023-03-02T00:13:31.169Z,17.75
2023-03-02T00:15:57.845Z,14.98
2023-03-02T00:18:24.479Z,22.50
2023-03-02T00:20:51.045Z,20.80
2023-03-02T00:23:17.773Z,16.50
2023-03-02T00:25:44.380Z,19.55
2023-03-02T00:28:10.960Z,21.90
2023-03-02T00:30:38.657Z,18.55
2023-03-02T00:33:05.275Z,17.63
2023-03-02T00:35:37.242Z,24.52
2023-03-02T00:38:03.882Z,21.80
2023-03-02T00:40:30.532Z,22.55
2023-03-02T00:42:57.073Z,22.17
2023-03-02T00:45:23.688Z,24.67
2023-03-02T00:47:50.323Z,19.52
2023-03-02T00:50:17.016Z,19.42
2023-03-02T00:52:43.591Z,19.35
2023-03-02T00:55:10.224Z,18.55
2023-03-02T00:57:36.917Z,20.15
2023-03-02T01:00:04.965Z,21.88
2023-03-02T01:02:39.045Z,17.20
2023-03-02T01:05:05.955Z,18.77
2023-03-02T01:07:33.392Z,21.50
2023-03-02T01:10:00.014Z,19.05
2023-03-02T01:12:26.648Z,20.50
2023-03-02T01:14:53.660Z,21.52
2023-03-02T01:17:22.064Z,21.98
2023-03-02T01:19:48.736Z,19.98
2023-03-02T01:22:15.448Z,21.75
2023-03-02T01:24:42.020Z,19.83
2023-03-02T01:27:08.711Z,21.02
2023-03-02T01:29:35.492Z,20.17
2023-03-02T01:32:02.923Z,20.23
2023-03-02T01:34:29.873Z,21.10
2023-03-02T01:36:56.595Z,19.27
2023-03-02T01:39:23.271Z,17.58
2023-03-02T01:46:07.101Z,19.08
2023-03-02T01:48:47.988Z,23.55
2023-03-02T01:51:23.355Z,20.73
2023-03-02T01:54:02.048Z,21.08
2023-03-02T01:56:36.118Z,24.27
2023-03-02T01:59:08.802Z,24.13
2023-03-02T02:01:39.277Z,22.55
2023-03-02T02:04:06.533Z,24.85
2023-03-02T02:06:37.442Z,25.65
2023-03-02T02:09:08.260Z,23.50
2023-03-02T02:11:35.581Z,20.63
2023-03-02T02:14:03.342Z,23.83
2023-03-02T02:16:33.212Z,18.85
2023-03-02T02:19:01.602Z,20.58
2023-03-02T02:21:29.319Z,18.95
2023-03-02T02:24:21.469Z,21.05
2023-03-02T02:26:51.348Z,20.83
2023-03-02T02:29:24.216Z,22.05
2023-03-02T02:32:19.397Z,19.05
2023-03-02T02:34:59.419Z,20.02
2023-03-02T02:37:35.623Z,20.17
2023-03-02T02:40:09.037Z,21.50
2023-03-02T02:42:41.793Z,22.90
2023-03-02T02:45:20.124Z,19.40
2023-03-02T02:47:47.659Z,22.35
2023-03-02T02:50:28.376Z,22.73
2023-03-02T02:53:05.480Z,19.45
2023-03-02T02:55:35.335Z,19.77
2023-03-02T02:58:09.901Z,20.63
2023-03-02T03:00:37.310Z,22.95
2023-03-02T03:03:29.027Z,22.58
2023-03-02T03:06:04.440Z,22.15
2023-03-02T03:08:43.376Z,18.17
2023-03-02T03:11:16.275Z,33.90
2023-03-02T03:13:44.450Z,23.58
2023-03-02T03:16:15.535Z,21.27
2023-03-02T03:18:45.220Z,19.85
2023-03-02T03:21:11.887Z,20.77
2023-03-02T03:23:38.741Z,19.63
2023-03-02T03:26:07.628Z,20.63
2023-03-02T03:28:35.683Z,21.30
2023-03-02T03:31:03.456Z,21.42
2023-03-02T03:33:30.288Z,22.58
2023-03-02T03:35:57.030Z,23.00
2023-03-02T03:38:23.790Z,22.60
2023-03-02T03:40:50.476Z,22.75
2023-03-02T03:43:17.242Z,20.65
2023-03-02T03:45:51.969Z,25.42
2023-03-02T03:48:19.525Z,22.00
2023-03-02T03:50:47.712Z,21.67
2023-03-02T03:53:14.327Z,21.20
2023-03-02T03:55:41.103Z,20.02
2023-03-02T03:58:07.862Z,21.25
2023-03-02T04:00:35.219Z,22.13
2023-03-02T04:03:07.070Z,22.90
2023-03-02T04:05:34.407Z,26.13
2023-03-02T04:08:03.332Z,20.75
2023-03-02T04:10:30.635Z,23.00
2023-03-02T04:12:57.558Z,21.92
2023-03-02T04:15:24.880Z,24.83
2023-03-02T04:17:52.717Z,23.50
2023-03-02T04:20:22.303Z,25.02
2023-03-02T04:22:53.849Z,24.92
2023-03-02T04:25:23.797Z,22.65
2023-03-02T04:27:54.474Z,26.55
2023-03-02T04:30:25.022Z,28.00
2023-03-02T04:32:52.142Z,23.73
2023-03-02T04:35:20.294Z,27.65
2023-03-02T04:37:47.433Z,25.80
2023-03-02T04:40:15.986Z,23.10
2023-03-02T04:42:44.590Z,27.38
2023-03-02T04:45:11.754Z,25.38
2023-03-02T04:47:38.570Z,28.02
2023-03-02T04:50:05.874Z,25.15
2023-03-02T04:52:32.566Z,23.02
2023-03-02T04:54:59.141Z,23.27
2023-03-02T04:57:25.757Z,22.05
2023-03-02T04:59:52.414Z,24.58
2023-03-02T05:02:19.074Z,23.13
2023-03-02T05:04:45.822Z,26.13
2023-03-02T05:07:12.404Z,23.60
2023-03-02T05:09:39.046Z,21.35
2023-03-02T05:12:05.857Z,25.08
2023-03-02T05:14:33.063Z,25.70
2023-03-02T05:16:59.734Z,27.27
2023-03-02T05:19:26.768Z,23.35
2023-03-02T05:21:53.474Z,25.25
2023-03-02T05:24:20.176Z,27.27
2023-03-02T05:26:46.766Z,26.17
2023-03-02T05:29:13.377Z,27.45
2023-03-02T05:31:43.301Z,26.65
2023-03-02T05:34:12.423Z,22.50
2023-03-02T05:36:39.751Z,24.45
2023-03-02T05:39:07.006Z,25.88
2023-03-02T05:41:34.081Z,28.25
2023-03-02T05:44:01.039Z,27.35
2023-03-02T05:46:28.012Z,25.60
2023-03-02T05:48:54.602Z,27.35
2023-03-02T05:51:21.340Z,26.17
2023-03-02T05:53:48.000Z,24.38
2023-03-02T05:56:14.677Z,26.55
2023-03-02T05:58:41.330Z,26.23
2023-03-02T06:01:12.568Z,28.38
2023-03-02T06:03:41.411Z,31.67
2023-03-02T06:06:08.256Z,30.25
2023-03-02T06:08:35.014Z,30.40
2023-03-02T06:11:01.695Z,27.08
2023-03-02T06:13:28.382Z,31.48
2023-03-02T06:15:55.012Z,32.85
2023-03-02T06:18:21.761Z,30.42
2023-03-02T06:20:50.499Z,28.67
2023-03-02T06:23:17.142Z,29.05
2023-03-02T06:25:48.572Z,30.58
2023-03-02T06:28:16.576Z,31.73
2023-03-02T06:30:43.236Z,34.35
2023-03-02T06:33:09.794Z,34.90
2023-03-02T06:35:36.544Z,34.20
2023-03-02T06:38:03.372Z,31.15
2023-03-02T06:40:30.265Z,29.70
2023-03-02T06:42:57.052Z,31.02
2023-03-02T06:45:23.596Z,34.22
2023-03-02T06:47:50.221Z,31.33
2023-03-02T06:50:16.980Z,31.83
2023-03-02T06:52:43.573Z,33.20
2023-03-02T06:55:10.461Z,36.17
2023-03-02T06:57:39.581Z,40.58
2023-03-02T07:00:18.729Z,44.65
2023-03-02T07:02:46.701Z,39.33
2023-03-02T07:05:13.293Z,51.85
2023-03-02T07:07:40.488Z,49.13
2023-03-02T07:10:08.384Z,52.28
2023-03-02T07:12:35.131Z,49.28
2023-03-02T07:15:02.408Z,48.33
2023-03-02T07:17:30.081Z,43.10
2023-03-02T07:19:56.683Z,44.45
2023-03-02T07:22:23.302Z,47.40
2023-03-02T07:24:49.899Z,42.65
2023-03-02T07:27:16.539Z,43.25
2023-03-02T07:29:43.142Z,39.33
2023-03-02T07:32:12.391Z,37.50
2023-03-02T07:34:39.528Z,30.85
2023-03-02T07:37:06.214Z,30.08
2023-03-02T07:39:32.761Z,30.60
2023-03-02T07:42:04.384Z,31.13
2023-03-02T07:44:31.385Z,29.80
2023-03-02T07:46:59.468Z,37.60
2023-03-02T07:49:26.421Z,33.65
2023-03-02T07:51:53.112Z,33.30
2023-03-02T07:54:19.719Z,33.80
2023-03-02T07:56:47.506Z,33.15
2023-03-02T07:59:14.421Z,33.30
2023-03-02T08:01:41.083Z,39.10
2023-03-02T08:04:07.922Z,33.85
2023-03-02T08:06:34.488Z,37.05
2023-03-02T08:09:04.400Z,33.70
2023-03-02T08:11:31.403Z,34.25
2023-03-02T08:14:02.815Z,36.45
2023-03-02T08:16:30.158Z,31.42
2023-03-02T08:18:59.317Z,33.97
2023-03-02T08:21:27.504Z,38.93
2023-03-02T08:23:54.225Z,34.30
2023-03-02T08:26:21.170Z,34.38
2023-03-02T08:28:48.076Z,35.40
2023-03-02T08:31:15.391Z,33.40
2023-03-02T08:33:42.489Z,31.85
2023-03-02T08:36:16.506Z,34.92
2023-03-02T08:38:44.556Z,34.05
2023-03-02T08:41:14.727Z,33.33
2023-03-02T08:43:41.627Z,32.15
2023-03-02T08:46:08.684Z,31.30
2023-03-02T08:48:35.278Z,34.97
2023-03-02T08:51:08.094Z,31.70
2023-03-02T08:53:40.810Z,33.00
2023-03-02T08:56:29.135Z,34.17
2023-03-02T08:59:00.611Z,33.03
2023-03-02T09:01:32.188Z,33.53
2023-03-02T09:04:00.713Z,33.67
2023-03-02T09:06:29.624Z,30.90
2023-03-02T09:08:57.293Z,30.48
2023-03-02T09:11:24.397Z,32.42
2023-03-02T09:13:51.052Z,32.25
2023-03-02T09:16:20.722Z,32.22
2023-03-02T09:18:48.181Z,28.17
2023-03-02T09:21:14.943Z,34.35
2023-03-02T09:23:41.887Z,28.80
2023-03-02T09:26:09.552Z,28.77
2023-03-02T09:28:36.958Z,28.25
2023-03-02T09:31:05.766Z,25.48
2023-03-02T09:33:33.390Z,25.73
2023-03-02T09:36:04.831Z,24.90
2023-03-02T09:38:31.663Z,15.82
2023-03-02T09:41:12.120Z,15.27
2023-03-02T09:44:15.442Z,12.15
2023-03-02T09:46:49.454Z,13.80
2023-03-02T09:49:31.655Z,11.77
2023-03-02T09:52:27.442Z,13.32
2023-03-02T09:54:54.642Z,12.40
2023-03-02T09:57:25.467Z,13.27
2023-03-02T10:00:23.579Z,10.73
2023-03-02T10:02:58.763Z,10.52
2023-03-02T10:05:38.550Z,11.40
2023-03-02T10:08:05.715Z,11.05
2023-03-02T10:11:03.728Z,11.38
2023-03-02T10:13:36.525Z,11.25
2023-03-02T10:16:15.801Z,11.60
2023-03-02T10:18:42.346Z,10.13
2023-03-02T10:21:11.546Z,8.57
2023-03-02T10:23:56.268Z,11.20
2023-03-02T10:26:49.886Z,10.35
2023-03-02T10:29:28.378Z,8.43
2023-03-02T10:32:04.368Z,8.80
2023-03-02T10:34:31.591Z,7.88
2023-03-02T10:36:58.568Z,9.10
2023-03-02T10:39:25.228Z,8.68
2023-03-02T10:42:03.565Z,8.55
2023-03-02T10:44:39.279Z,8.95
2023-03-02T10:47:07.634Z,7.50
2023-03-02T10:49:36.813Z,8.68
2023-03-02T10:52:13.614Z,8.55
2023-03-02T10:54:41.073Z,8.07
2023-03-02T10:57:31.398Z,7.25
2023-03-02T11:00:13.995Z,9.70
2023-03-02T11:02:49.815Z,7.93
2023-03-02T11:05:29.057Z,7.07
2023-03-02T11:08:02.688Z,11.90
2023-03-02T11:10:41.062Z,9.13
2023-03-02T11:13:28.532Z,9.68
2023-03-02T11:16:01.281Z,9.50
2023-03-02T11:18:52.694Z,9.10
2023-03-02T11:21:43.640Z,8.95
2023-03-02T11:24:19.228Z,9.05
2023-03-02T11:26:54.472Z,10.50
2023-03-02T11:29:45.484Z,10.75
2023-03-02T11:35:05.044Z,11.30
2023-03-02T11:37:52.377Z,14.57
2023-03-02T11:40:36.810Z,10.40
2023-03-02T11:43:06.837Z,11.57
2023-03-02T11:45:38.206Z,8.90
2023-03-02T11:48:18.445Z,9.70
2023-03-02T11:50:57.214Z,10.80
2023-03-02T11:53:31.997Z,10.60
2023-03-02T11:55:58.826Z,10.05
2023-03-02T11:58:28.314Z,15.52
2023-03-02T12:00:56.151Z,10.77
2023-03-02T12:03:31.631Z,11.10
2023-03-02T12:06:07.230Z,12.50
2023-03-02T12:08:41.450Z,12.07
2023-03-02T12:11:34.224Z,11.07
2023-03-02T12:14:04.480Z,12.52
2023-03-02T12:16:42.253Z,12.35
2023-03-02T12:19:17.906Z,14.00
2023-03-02T12:22:06.800Z,13.90
2023-03-02T12:24:36.657Z,13.35
2023-03-02T12:27:15.549Z,16.60
2023-03-02T12:29:46.543Z,14.82
2023-03-02T12:32:33.510Z,13.88
2023-03-02T12:35:09.476Z,14.55
2023-03-02T12:37:53.629Z,15.23
2023-03-02T12:40:23.255Z,17.95
2023-03-02T12:42:55.794Z,16.92
2023-03-02T12:45:37.370Z,14.50
2023-03-02T12:48:22.801Z,15.88
2023-03-02T12:50:51.237Z,14.13
2023-03-02T12:53:20.153Z,20.25
2023-03-02T12:55:47.166Z,16.17
2023-03-02T12:58:20.234Z,15.15
2023-03-02T13:00:58.337Z,15.07
2023-03-02T13:03:26.805Z,15.48
2023-03-02T13:06:17.281Z,16.50
2023-03-02T13:08:48.187Z,15.60
2023-03-02T13:11:24.442Z,14.73
2023-03-02T13:13:51.260Z,18.13
2023-03-02T13:16:28.162Z,16.23
2023-03-02T13:18:57.768Z,17.05
2023-03-02T13:21:37.601Z,18.02
2023-03-02T13:24:20.480Z,18.15
2023-03-02T13:26:56.361Z,18.05
2023-03-02T13:29:27.019Z,17.27
2023-03-02T13:31:55.225Z,17.48
2023-03-02T13:34:27.887Z,16.58
2023-03-02T13:36:55.116Z,16.27
2023-03-02T13:39:31.646Z,16.10
2023-03-02T13:42:00.976Z,17.70
2023-03-02T13:44:35.310Z,18.85
2023-03-02T13:47:02.399Z,16.25
2023-03-02T13:49:32.501Z,17.55
2023-03-02T13:52:08.391Z,18.13
2023-03-02T13:54:37.507Z,19.30
2023-03-02T13:57:06.230Z,19.02
2023-03-02T13:59:36.347Z,14.73
2023-03-02T14:02:03.356Z,17.60
2023-03-02T14:04:30.150Z,18.58
2023-03-02T14:06:56.849Z,15.20
2023-03-02T14:09:23.707Z,16.65
2023-03-02T14:11:53.482Z,15.55
2023-03-02T14:14:23.871Z,16.70
2023-03-02T14:16:51.254Z,18.25
2023-03-02T14:19:18.659Z,18.25
2023-03-02T14:21:46.626Z,15.73
2023-03-02T14:24:14.529Z,17.83
2023-03-02T14:26:46.270Z,20.38
2023-03-02T14:29:31.442Z,14.98
2023-03-02T14:32:00.325Z,13.55
2023-03-02T14:34:27.007Z,13.75
2023-03-02T14:36:56.541Z,16.92
2023-03-02T14:39:32.218Z,16.00
2023-03-02T14:41:59.736Z,15.02
2023-03-02T14:44:26.671Z,13.52
2023-03-02T14:46:53.350Z,15.40
2023-03-02T14:49:21.085Z,13.50
2023-03-02T14:51:54.891Z,14.70
2023-03-02T14:54:21.810Z,12.05
2023-03-02T14:56:50.485Z,14.25
2023-03-02T14:59:17.358Z,13.05
2023-03-02T15:01:46.926Z,14.40
2023-03-02T15:04:13.546Z,14.73
2023-03-02T15:06:42.295Z,18.35
2023-03-02T15:09:11.912Z,15.82
2023-03-02T15:11:38.552Z,17.73
2023-03-02T15:14:05.131Z,16.08
2023-03-02T15:16:33.035Z,20.40
2023-03-02T15:18:59.941Z,13.45
2023-03-02T15:21:26.578Z,16.23
2023-03-02T15:23:53.322Z,18.25
2023-03-02T15:26:19.986Z,15.05
2023-03-02T15:28:50.694Z,16.75
2023-03-02T15:31:18.343Z,16.65
2023-03-02T15:33:45.537Z,16.17
2023-03-02T15:36:13.297Z,18.38
2023-03-02T15:38:40.326Z,19.70
2023-03-02T15:41:10.276Z,18.92
2023-03-02T15:43:37.114Z,16.63
2023-03-02T15:46:05.420Z,19.85
2023-03-02T15:48:32.550Z,19.35
2023-03-02T15:51:00.752Z,17.20
2023-03-02T15:53:28.972Z,16.27
2023-03-02T15:55:56.141Z,17.83
2023-03-02T15:58:23.358Z,17.77
2023-03-02T16:00:50.865Z,19.15
2023-03-02T16:03:19.284Z,18.85
2023-03-02T16:05:46.937Z,18.55
2023-03-02T16:08:13.694Z,15.65
2023-03-02T16:10:42.905Z,16.52
2023-03-02T16:13:11.717Z,18.60
2023-03-02T16:15:42.059Z,16.67
2023-03-02T16:18:11.451Z,15.65
2023-03-02T16:20:39.691Z,16.98
2023-03-02T16:23:08.515Z,14.23
2023-03-02T16:25:39.628Z,19.63
2023-03-02T16:28:07.125Z,16.30
2023-03-02T16:30:34.925Z,13.52
2023-03-02T16:33:03.536Z,17.35
2023-03-02T16:35:33.161Z,19.30
2023-03-02T16:38:00.601Z,16.95
2023-03-02T16:40:28.041Z,17.35
2023-03-02T16:42:55.082Z,17.00
2023-03-02T16:45:22.933Z,14.68
2023-03-02T16:47:49.891Z,19.75
2023-03-02T16:50:17.423Z,18.15
2023-03-02T16:52:44.833Z,16.95
2023-03-02T16:55:18.812Z,15.77
2023-03-02T16:57:46.424Z,15.95
2023-03-02T17:00:18.471Z,17.60
2023-03-02T17:02:45.103Z,20.98
2023-03-02T17:05:13.519Z,20.30
2023-03-02T17:07:40.260Z,18.30
2023-03-02T17:10:08.020Z,18.38
2023-03-02T17:12:34.619Z,18.27
2023-03-02T17:15:01.205Z,19.77
2023-03-02T17:17:27.740Z,17.50
2023-03-02T17:19:54.352Z,26.38
2023-03-02T17:22:20.883Z,19.33
2023-03-02T17:24:47.539Z,16.75
2023-03-02T17:27:24.595Z,16.23
2023-03-02T17:29:52.968Z,18.83
2023-03-02T17:32:21.954Z,19.00
2023-03-02T17:34:48.796Z,19.55
2023-03-02T17:37:17.512Z,17.05
2023-03-02T17:39:44.194Z,16.42
2023-03-02T17:42:10.944Z,17.23
2023-03-02T17:44:38.977Z,21.30
2023-03-02T17:47:08.154Z,23.70
2023-03-02T17:49:39.528Z,22.20
2023-03-02T17:52:06.356Z,25.70
2023-03-02T17:54:32.895Z,27.17
2023-03-02T17:56:59.562Z,26.50
2023-03-02T17:59:26.516Z,25.02
2023-03-02T18:01:53.415Z,26.42
2023-03-02T18:04:20.951Z,31.35
2023-03-02T18:06:53.031Z,21.88
2023-03-02T18:09:22.081Z,16.17
2023-03-02T18:11:48.822Z,23.38
2023-03-02T18:14:19.206Z,17.08
2023-03-02T18:19:13.075Z,17.77
2023-03-02T18:21:41.718Z,18.73
2023-03-02T18:24:09.421Z,19.13
2023-03-02T18:26:38.045Z,21.20
2023-03-02T18:29:04.956Z,16.48
2023-03-02T18:31:33.953Z,21.38
2023-03-02T18:34:01.615Z,16.92
2023-03-02T18:36:28.583Z,22.02
2023-03-02T18:38:55.265Z,16.92
2023-03-02T18:41:24.001Z,21.42
2023-03-02T18:43:51.754Z,20.02
2023-03-02T18:46:21.393Z,20.98
2023-03-02T18:48:50.166Z,21.13
2023-03-02T18:51:18.650Z,24.40
2023-03-02T18:53:45.543Z,23.00
2023-03-02T18:56:12.253Z,23.63
2023-03-02T18:58:39.735Z,22.50
2023-03-02T19:01:07.281Z,25.15
2023-03-02T19:03:35.467Z,21.30
2023-03-02T19:06:02.090Z,27.23
2023-03-02T19:08:29.543Z,21.83
2023-03-02T19:10:56.200Z,26.65
2023-03-02T19:13:23.896Z,25.38
2023-03-02T19:15:50.698Z,25.00
2023-03-02T19:18:19.590Z,24.13
2023-03-02T19:20:48.390Z,26.90
2023-03-02T19:23:15.544Z,23.63
2023-03-02T19:25:46.988Z,26.88
2023-03-02T19:28:14.600Z,23.45
2023-03-02T19:30:41.524Z,24.65
2023-03-02T19:33:09.712Z,23.10
2023-03-02T19:35:37.739Z,19.88
2023-03-02T19:38:05.808Z,21.63
2023-03-02T19:40:32.649Z,26.98
2023-03-02T19:42:59.451Z,25.00
2023-03-02T19:45:29.554Z,26.27
2023-03-02T19:47:57.811Z,24.83
2023-03-02T19:50:25.691Z,25.48
2023-03-02T19:52:54.761Z,24.42
2023-03-02T19:55:24.182Z,26.02
2023-03-02T19:57:57.262Z,25.55
2023-03-02T20:00:24.214Z,25.05
2023-03-02T20:02:50.899Z,27.25
2023-03-02T20:05:18.005Z,27.63
2023-03-02T20:07:45.162Z,27.67
2023-03-02T20:10:40.546Z,27.13
2023-03-02T20:13:08.715Z,26.10
2023-03-02T20:15:39.117Z,26.10
2023-03-02T20:20:34.340Z,26.90
2023-03-02T20:23:00.912Z,28.50
2023-03-02T20:25:28.603Z,27.85
2023-03-02T20:27:55.958Z,29.27
2023-03-02T20:30:30.913Z,30.60
2023-03-02T20:32:59.792Z,26.80
2023-03-02T20:35:30.254Z,30.33
2023-03-02T20:37:58.672Z,30.02
2023-03-02T20:40:26.183Z,31.85
2023-03-02T20:42:53.441Z,31.90
2023-03-02T20:45:20.584Z,32.15
2023-03-02T20:47:47.824Z,40.15
2023-03-02T20:50:18.997Z,40.83
2023-03-02T20:52:47.055Z,46.90
2023-03-02T20:55:13.889Z,40.65
2023-03-02T20:57:40.772Z,37.85
2023-03-02T21:00:11.830Z,35.95
2023-03-02T21:02:38.418Z,29.92
2023-03-02T21:05:06.608Z,32.58
2023-03-02T21:07:35.971Z,29.58
2023-03-02T21:10:05.925Z,33.17
2023-03-02T21:12:33.281Z,30.60
2023-03-02T21:15:02.000Z,32.10
2023-03-02T21:17:30.727Z,32.67
2023-03-02T21:19:58.204Z,32.25
2023-03-02T21:22:24.993Z,30.67
2023-03-02T21:24:52.996Z,33.22
2023-03-02T21:27:20.155Z,32.70
2023-03-02T21:29:47.220Z,32.60
2023-03-02T21:32:14.522Z,31.20
2023-03-02T21:34:41.052Z,36.72
2023-03-02T21:37:07.723Z,32.83
2023-03-02T21:39:34.424Z,31.45
2023-03-02T21:42:01.169Z,37.28
2023-03-02T21:44:27.843Z,35.28
2023-03-02T21:46:54.750Z,32.90
2023-03-02T21:49:22.913Z,32.40
2023-03-02T21:51:50.098Z,30.17
2023-03-02T21:54:17.090Z,35.72
2023-03-02T21:56:44.040Z,32.88
2023-03-02T21:59:11.284Z,38.67
2023-03-02T22:01:37.944Z,39.03
2023-03-02T22:04:04.839Z,38.70
2023-03-02T22:06:33.201Z,37.15
2023-03-02T22:09:01.385Z,36.28
2023-03-02T22:11:34.653Z,36.50
2023-03-02T22:14:07.972Z,37.00
2023-03-02T22:16:40.171Z,33.50
2023-03-02T22:19:25.582Z,38.53
2023-03-02T22:21:54.310Z,29.75
2023-03-02T22:24:31.834Z,37.20
2023-03-02T22:27:04.861Z,35.25
2023-03-02T22:29:34.512Z,36.53
2023-03-02T22:32:15.567Z,36.22
2023-03-02T22:34:43.614Z,32.58
2023-03-02T22:37:17.506Z,30.98
2023-03-02T22:39:45.469Z,33.97
2023-03-02T22:42:15.975Z,36.17
2023-03-02T22:47:15.822Z,33.05
2023-03-02T22:49:43.037Z,33.83
2023-03-02T22:52:21.908Z,32.63
2023-03-02T22:54:48.836Z,33.00
2023-03-02T22:57:31.721Z,33.22
2023-03-02T23:00:18.547Z,37.55
2023-03-02T23:02:46.050Z,35.33
2023-03-02T23:05:38.843Z,45.75
2023-03-02T23:08:25.134Z,41.20
2023-03-02T23:10:54.486Z,41.25
2023-03-02T23:13:24.649Z,48.67
2023-03-02T23:15:53.123Z,55.88
2023-03-02T23:18:28.866Z,52.45
2023-03-02T23:20:56.045Z,46.30
2023-03-02T23:23:24.598Z,45.75
2023-03-02T23:25:51.215Z,47.70
2023-03-02T23:28:17.861Z,53.05
2023-03-02T23:30:45.264Z,58.00
2023-03-02T23:33:12.017Z,62.78
2023-03-02T23:35:38.736Z,60.80
2023-03-02T23:38:05.331Z,60.05
2023-03-02T23:40:31.947Z,48.33
2023-03-02T23:42:58.711Z,58.85
2023-03-02T23:45:26.474Z,57.03
2023-03-02T23:47:53.124Z,51.13
2023-03-02T23:50:19.905Z,48.28
2023-03-02T23:52:46.593Z,47.28
2023-03-02T23:55:13.352Z,71.28
2023-03-02T23:57:39.941Z,74.95
